ADDS METAR Data INFO
IDs: Format: Raw Decoded Include TAF

Data at: 0920 UTC 13 Dec 2017

KUVA 130915Z AUTO 00000KT 10SM CLR 03/00 A3020 RMK AO2 T00251001
KUVA 130855Z AUTO 00000KT 10SM CLR 02/00 A3021 RMK AO2 T00241001
KUVA 130835Z AUTO 00000KT 10SM CLR 03/00 A3021 RMK AO2 T00281001
KUVA 130815Z AUTO 00000KT 10SM CLR 03/00 A3022 RMK AO2 T00321002
KUVA 130755Z AUTO 00000KT 10SM CLR 04/00 A3022 RMK AO2 T00391002
KUVA 130735Z AUTO 00000KT 10SM CLR 03/00 A3023 RMK AO2 T00311002
KUVA 130715Z AUTO 00000KT 10SM CLR 04/00 A3023 RMK AO2 T00361001
KUVA 130655Z AUTO 36003KT 10SM CLR 03/00 A3024 RMK AO2 T00251001
KUVA 130635Z AUTO 02003KT 10SM CLR 04/00 A3025 RMK AO2 T00370000
KUVA 130615Z AUTO 00000KT 10SM CLR 03/00 A3026 RMK AO2 T00280002
KUVA 130555Z AUTO 00000KT 10SM CLR 04/00 A3027 RMK AO2 T00400003 10154 20031 401990015
KUVA 130535Z AUTO 00000KT 10SM CLR 04/00 A3028 RMK AO2 T00360000
KUVA 130515Z AUTO 00000KT 10SM CLR 04/00 A3028 RMK AO2 T00371003
KUVA 130455Z AUTO 00000KT 10SM CLR 04/00 A3029 RMK AO2 T00401003
KUVA 130435Z AUTO 00000KT 10SM CLR 04/00 A3029 RMK AO2 T00431001
KUVA 130415Z AUTO 10003KT 10SM CLR 05/00 A3029 RMK AO2 T00501004
KUVA 130355Z AUTO 00000KT 10SM CLR 06/00 A3029 RMK AO2 T00641001
KUVA 130335Z AUTO 00000KT 10SM CLR 07/00 A3029 RMK AO2 T00681004
KUVA 130315Z AUTO 00000KT 10SM CLR 08/00 A3029 RMK AO2 T00761003
KUVA 130255Z AUTO 05005KT 10SM CLR 07/00 A3030 RMK AO2 T00741003
KUVA 130235Z AUTO 01004KT 10SM CLR 08/00 A3029 RMK AO2 T00831003
KUVA 130215Z AUTO 36003KT 10SM CLR 08/00 A3029 RMK AO2 T00801001
KUVA 130155Z AUTO 36004KT 10SM CLR 09/00 A3029 RMK AO2 T00901003
KUVA 130135Z AUTO 36004KT 10SM CLR 11/M01 A3029 RMK AO2 T01051007
KUVA 130115Z AUTO 36003KT 10SM CLR 11/M01 A3028 RMK AO2 T01071007
KUVA 130055Z AUTO 36004KT 10SM CLR 11/M01 A3028 RMK AO2 T01091012
KUVA 130035Z AUTO 01004KT 10SM CLR 12/M01 A3028 RMK AO2 T01231008
KUVA 130015Z AUTO 35003KT 10SM CLR 15/M02 A3028 RMK AO2 T01451021
KUVA 122355Z AUTO 32004KT 10SM CLR 15/M02 A3028 RMK AO2 T01541025 10199 20151
KUVA 122335Z AUTO 31005KT 10SM CLR 16/M02 A3028 RMK AO2 T01561025
KUVA 122315Z AUTO 31005KT 10SM CLR 17/M03 A3028 RMK AO2 T01681026
KUVA 122255Z AUTO 31006KT 10SM CLR 18/M03 A3028 RMK AO2 T01821032
KUVA 122235Z AUTO 29005KT 10SM CLR 19/M04 A3029 RMK AO2 T01891040
KUVA 122215Z AUTO 31008KT 10SM CLR 19/M04 A3029 RMK AO2 T01921038
KUVA 122155Z AUTO 28007KT 10SM CLR 19/M04 A3029 RMK AO2 T01931039
KUVA 122135Z AUTO 28006KT 10SM CLR 20/M04 A3030 RMK AO2 T01951040
KUVA 122115Z AUTO 00000KT 10SM CLR 20/M04 A3030 RMK AO2 T01951042
KUVA 122055Z AUTO 29006KT 10SM CLR 20/M04 A3031 RMK AO2 T01961040
KUVA 122035Z AUTO 26005KT 10SM CLR 20/M05 A3032 RMK AO2 T01951051
KUVA 122015Z AUTO 29004KT 10SM CLR 19/M05 A3033 RMK AO2 T01931048
KUVA 121955Z AUTO 32004KT 10SM CLR 19/M05 A3034 RMK AO2 T01901051
KUVA 121935Z AUTO 26008KT 230V290 10SM CLR 19/M04 A3036 RMK AO2 T01861044
KUVA 121915Z AUTO 29004KT 10SM CLR 18/M05 A3037 RMK AO2 T01841048
KUVA 121855Z AUTO 33006KT 10SM CLR 19/M04 A3039 RMK AO2 T01851045
KUVA 121835Z AUTO 29004KT 10SM CLR 18/M05 A3040 RMK AO2 T01781051
KUVA 121815Z AUTO 04004KT 10SM CLR 18/M05 A3042 RMK AO2 T01781049
KUVA 121755Z AUTO 36007KT 320V030 10SM CLR 18/M05 A3043 RMK AO2 T01751048 10175 20015
KUVA 121735Z AUTO 36005KT 10SM CLR 17/M05 A3044 RMK AO2 T01701049
KUVA 121715Z AUTO 02008KT 10SM CLR 17/M05 A3044 RMK AO2 T01661051
KUVA 121655Z AUTO 04008KT 10SM CLR 17/M04 A3044 RMK AO2 T01651043
KUVA 121635Z AUTO 03010G14KT 10SM CLR 16/M05 A3044 RMK AO2 T01591051
KUVA 121615Z AUTO 03011G17KT 10SM CLR 15/M05 A3044 RMK AO2 T01511048
KUVA 121555Z AUTO 02009KT 10SM CLR 14/M04 A3043 RMK AO2 T01421036
KUVA 121535Z AUTO 03004KT 10SM CLR 13/01 A3043 RMK AO2 T01270012
KUVA 121515Z AUTO 02004KT 10SM CLR 12/01 A3043 RMK AO2 T01160005
KUVA 121455Z AUTO 00000KT 10SM CLR 09/03 A3042 RMK AO2 T00850029
KUVA 121435Z AUTO 00000KT 10SM CLR 06/03 A3041 RMK AO2 T00620028
KUVA 121415Z AUTO 34003KT 10SM CLR 03/00 A3040 RMK AO2 T00250000
KUVA 121355Z AUTO 00000KT 10SM CLR 03/00 A3040 RMK AO2 T00290000
KUVA 121335Z AUTO 00000KT 10SM CLR 02/00 A3039 RMK AO2 T00161003
KUVA 121315Z AUTO 00000KT 10SM CLR 02/00 A3037 RMK AO2 T00220000
KUVA 121255Z AUTO 35003KT 10SM CLR 02/00 A3036 RMK AO2 T00240002
KUVA 121235Z AUTO 00000KT 10SM CLR 03/00 A3034 RMK AO2 T00340003
KUVA 121215Z AUTO 34003KT 10SM CLR 03/00 A3033 RMK AO2 T00280000
KUVA 121155Z AUTO 35004KT 10SM CLR 04/00 A3032 RMK AO2 T00390003 10080 20022
KUVA 121135Z AUTO 00000KT 10SM CLR 04/01 A3031 RMK AO2 T00390005
KUVA 121115Z AUTO 00000KT 10SM CLR 03/01 A3031 RMK AO2 T00320006
KUVA 121055Z AUTO 33003KT 10SM CLR 02/00 A3030 RMK AO2 T00230001
KUVA 121035Z AUTO 33004KT 10SM CLR 03/00 A3030 RMK AO2 T00320004
KUVA 121015Z AUTO 00000KT 10SM CLR 04/01 A3030 RMK AO2 T00390012
KUVA 120955Z AUTO 00000KT 10SM CLR 04/01 A3030 RMK AO2 T00410014
KUVA 120935Z AUTO 00000KT 10SM CLR 04/01 A3030 RMK AO2 T00370009
KUVA 120915Z AUTO 00000KT 10SM CLR 05/02 A3029 RMK AO2 T00490017
KUVA 120855Z AUTO 34003KT 10SM CLR 05/02 A3028 RMK AO2 T00470022
KUVA 120835Z AUTO 00000KT 10SM CLR 05/02 A3028 RMK AO2 T00460015
KUVA 120815Z AUTO 00000KT 10SM CLR 06/02 A3027 RMK AO2 T00610021
KUVA 120755Z AUTO 00000KT 10SM CLR 05/02 A3027 RMK AO2 T00500023
KUVA 120735Z AUTO 33004KT 10SM CLR 07/03 A3026 RMK AO2 T00670026
KUVA 120715Z AUTO 00000KT 10SM CLR 06/03 A3026 RMK AO2 T00620026
KUVA 120655Z AUTO 30003KT 10SM CLR 07/03 A3027 RMK AO2 T00720030
KUVA 120635Z AUTO 00000KT 10SM CLR 07/03 A3028 RMK AO2 T00670031
KUVA 120615Z AUTO 30003KT 10SM CLR 07/03 A3028 RMK AO2 T00700030
KUVA 120555Z AUTO 30003KT 10SM CLR 08/04 A3028 RMK AO2 T00810036 10158 20076 402170000
KUVA 120535Z AUTO 31004KT 10SM CLR 08/04 A3028 RMK AO2 T00790037
KUVA 120515Z AUTO 31005KT 10SM CLR 09/04 A3028 RMK AO2 T00920037
KUVA 120455Z AUTO 31005KT 10SM CLR 09/04 A3027 RMK AO2 T00930040
KUVA 120435Z AUTO 30006KT 10SM CLR 10/04 A3027 RMK AO2 T01020039
KUVA 120415Z AUTO 28005KT 10SM CLR 11/04 A3027 RMK AO2 T01050039
KUVA 120355Z AUTO 00000KT 10SM CLR 10/04 A3027 RMK AO2 T01030040
KUVA 120335Z AUTO 31005KT 10SM CLR 12/04 A3027 RMK AO2 T01170041
KUVA 120315Z AUTO 28003KT 10SM CLR 12/05 A3027 RMK AO2 T01180045
KUVA 120255Z AUTO 27003KT 10SM CLR 11/04 A3025 RMK AO2 T01060044
KUVA 120235Z AUTO 00000KT 10SM CLR 10/05 A3025 RMK AO2 T00970047
KUVA 120215Z AUTO 00000KT 10SM CLR 11/04 A3025 RMK AO2 T01110041
KUVA 120155Z AUTO 00000KT 10SM CLR 12/04 A3025 RMK AO2 T01180042
KUVA 120135Z AUTO 00000KT 10SM CLR 13/04 A3025 RMK AO2 T01260043
KUVA 120115Z AUTO 25003KT 10SM CLR 15/04 A3025 RMK AO2 T01450035
KUVA 120055Z AUTO 25003KT 10SM CLR 13/04 A3024 RMK AO2 T01300041
KUVA 120035Z AUTO 00000KT 10SM CLR 15/03 A3023 RMK AO2 T01450031
KUVA 120015Z AUTO 00000KT 10SM CLR 15/04 A3023 RMK AO2 T01500038
KUVA 112355Z AUTO 22004KT 10SM CLR 16/03 A3024 RMK AO2 T01590032 10217 20157
KUVA 112335Z AUTO 24003KT 10SM CLR 17/03 A3024 RMK AO2 T01670027
KUVA 112315Z AUTO 24004KT 10SM CLR 17/02 A3023 RMK AO2 T01740024
KUVA 112255Z AUTO 22004KT 10SM CLR 18/03 A3024 RMK AO2 T01790025
KUVA 112235Z AUTO 20005KT 10SM CLR 19/01 A3023 RMK AO2 T01850010
KUVA 112215Z AUTO 22007KT 10SM CLR 20/00 A3024 RMK AO2 T01950001
KUVA 112155Z AUTO 22006KT 10SM CLR 20/00 A3023 RMK AO2 T02011001
KUVA 112135Z AUTO 20006KT 10SM CLR 21/00 A3024 RMK AO2 T02081003